Time,TemperatureF,DewpointF,PressureIn,WindDirection,WindDirectionDegrees,WindSpeedMPH,WindSpeedGustMPH,Humidity,HourlyPrecipIn,Conditions,Clouds,dailyrainin,SolarRadiationWatts/m^2,SoftwareType,DateUTC
2013-06-05 00:22:00,45.0,30.0,-100.00,SE,142,10.0,17.0,55,0.00,,,0.00,5.000000,,2013-06-05 08:22:00,
2013-06-05 00:32:00,45.0,30.0,-100.00,SE,142,10.0,17.0,55,0.00,,,0.00,5.000000,,2013-06-05 08:32:00,
2013-06-05 00:42:00,45.0,30.0,-100.00,SE,142,10.0,17.0,55,0.00,,,0.00,5.000000,,2013-06-05 08:42:00,
2013-06-05 00:52:00,45.0,30.0,-100.00,SE,142,10.0,17.0,55,0.00,,,0.00,5.000000,,2013-06-05 08:52:00,
2013-06-05 01:22:00,45.0,30.0,-100.00,SSE,162,9.0,17.0,55,0.00,,,0.00,0.000000,,2013-06-05 09:22:00,
2013-06-05 01:32:00,45.0,30.0,-100.00,SSE,162,9.0,17.0,55,0.00,,,0.00,0.000000,,2013-06-05 09:32:00,
2013-06-05 01:42:00,45.0,30.0,-100.00,SSE,162,9.0,17.0,55,0.00,,,0.00,0.000000,,2013-06-05 09:42:00,
2013-06-05 01:52:00,45.0,30.0,-100.00,SSE,162,9.0,17.0,55,0.00,,,0.00,0.000000,,2013-06-05 09:52:00,
2013-06-05 02:22:00,44.0,29.0,-100.00,SE,144,8.0,17.0,55,0.00,,,0.00,0.000000,,2013-06-05 10:22:00,
2013-06-05 02:33:00,44.0,29.0,-100.00,SE,144,8.0,17.0,55,0.00,,,0.00,0.000000,,2013-06-05 10:33:00,
2013-06-05 02:42:00,44.0,29.0,-100.00,SE,144,8.0,17.0,55,0.00,,,0.00,0.000000,,2013-06-05 10:42:00,
2013-06-05 02:52:00,44.0,29.0,-100.00,SE,144,8.0,17.0,55,0.00,,,0.00,0.000000,,2013-06-05 10:52:00,
2013-06-05 03:22:00,44.0,29.0,-100.00,ESE,104,4.0,16.0,55,0.00,,,0.00,0.000000,,2013-06-05 11:22:00,
2013-06-05 03:32:00,44.0,29.0,-100.00,ESE,104,4.0,16.0,55,0.00,,,0.00,0.000000,,2013-06-05 11:32:00,
2013-06-05 03:42:00,44.0,29.0,-100.00,ESE,104,4.0,16.0,55,0.00,,,0.00,0.000000,,2013-06-05 11:42:00,
2013-06-05 03:52:00,44.0,29.0,-100.00,ESE,104,4.0,16.0,55,0.00,,,0.00,0.000000,,2013-06-05 11:52:00,
2013-06-05 04:22:00,43.0,30.0,-100.00,SE,142,6.0,15.0,60,0.00,,,0.00,0.000000,,2013-06-05 12:22:00,
2013-06-05 04:32:00,43.0,30.0,-100.00,SE,142,6.0,15.0,60,0.00,,,0.00,0.000000,,2013-06-05 12:32:00,
2013-06-05 04:43:00,43.0,30.0,-100.00,SE,142,6.0,15.0,60,0.00,,,0.00,0.000000,,2013-06-05 12:43:00,
2013-06-05 04:52:00,43.0,30.0,-100.00,SE,142,6.0,15.0,60,0.00,,,0.00,0.000000,,2013-06-05 12:52:00,
2013-06-05 05:22:00,43.0,30.0,-100.00,SE,141,6.0,11.0,59,0.00,,,0.00,4.000000,,2013-06-05 13:22:00,
2013-06-05 05:32:00,43.0,30.0,-100.00,SE,141,6.0,11.0,59,0.00,,,0.00,4.000000,,2013-06-05 13:32:00,
2013-06-05 05:42:00,43.0,30.0,-100.00,SE,141,6.0,11.0,59,0.00,,,0.00,4.000000,,2013-06-05 13:42:00,
2013-06-05 05:52:00,43.0,30.0,-100.00,SE,141,6.0,11.0,59,0.00,,,0.00,4.000000,,2013-06-05 13:52:00,
2013-06-05 06:22:00,44.0,30.0,-100.00,ESE,119,7.0,15.0,57,0.00,,,0.00,18.000000,,2013-06-05 14:22:00,
2013-06-05 06:32:00,44.0,30.0,-100.00,ESE,119,7.0,15.0,57,0.00,,,0.00,18.000000,,2013-06-05 14:32:00,
2013-06-05 06:42:00,44.0,30.0,-100.00,ESE,119,7.0,15.0,57,0.00,,,0.00,18.000000,,2013-06-05 14:42:00,
2013-06-05 06:52:00,44.0,30.0,-100.00,ESE,119,7.0,15.0,57,0.00,,,0.00,18.000000,,2013-06-05 14:52:00,
2013-06-05 07:22:00,45.0,29.0,-100.00,SE,134,7.0,15.0,53,0.00,,,0.00,53.000000,,2013-06-05 15:22:00,
2013-06-05 07:33:00,45.0,29.0,-100.00,SE,134,7.0,15.0,53,0.00,,,0.00,53.000000,,2013-06-05 15:33:00,
2013-06-05 07:42:00,45.0,29.0,-100.00,SE,134,7.0,15.0,53,0.00,,,0.00,53.000000,,2013-06-05 15:42:00,
2013-06-05 07:53:00,45.0,29.0,-100.00,SE,134,7.0,15.0,53,0.00,,,0.00,53.000000,,2013-06-05 15:53:00,
2013-06-05 08:22:00,48.0,33.0,-100.00,WSW,257,2.0,6.0,56,0.00,,,0.00,243.000000,,2013-06-05 16:22:00,
2013-06-05 08:32:00,48.0,33.0,-100.00,WSW,257,2.0,6.0,56,0.00,,,0.00,243.000000,,2013-06-05 16:32:00,
2013-06-05 08:42:00,48.0,33.0,-100.00,WSW,257,2.0,6.0,56,0.00,,,0.00,243.000000,,2013-06-05 16:42:00,
2013-06-05 08:53:00,48.0,33.0,-100.00,WSW,257,2.0,6.0,56,0.00,,,0.00,243.000000,,2013-06-05 16:53:00,
2013-06-05 09:22:00,50.0,35.0,-100.00,North,349,4.0,7.0,56,0.00,,,0.00,365.000000,,2013-06-05 17:22:00,
2013-06-05 09:32:00,50.0,35.0,-100.00,North,349,4.0,7.0,56,0.00,,,0.00,365.000000,,2013-06-05 17:32:00,
2013-06-05 09:42:00,50.0,35.0,-100.00,North,349,4.0,7.0,56,0.00,,,0.00,365.000000,,2013-06-05 17:42:00,
2013-06-05 09:52:00,50.0,35.0,-100.00,North,349,4.0,7.0,56,0.00,,,0.00,365.000000,,2013-06-05 17:52:00,
2013-06-05 10:22:00,51.0,34.0,-100.00,WSW,251,4.0,9.0,52,0.00,,,0.00,517.000000,,2013-06-05 18:22:00,
2013-06-05 10:32:00,51.0,34.0,-100.00,WSW,251,4.0,9.0,52,0.00,,,0.00,517.000000,,2013-06-05 18:32:00,
2013-06-05 10:42:00,51.0,34.0,-100.00,WSW,251,4.0,9.0,52,0.00,,,0.00,517.000000,,2013-06-05 18:42:00,
2013-06-05 10:52:00,51.0,34.0,-100.00,WSW,251,4.0,9.0,52,0.00,,,0.00,517.000000,,2013-06-05 18:52:00,
2013-06-05 11:23:00,49.0,33.0,-100.00,SE,140,3.0,7.0,53,0.00,,,0.00,436.000000,,2013-06-05 19:23:00,
2013-06-05 11:32:00,49.0,33.0,-100.00,SE,140,3.0,7.0,53,0.00,,,0.00,436.000000,,2013-06-05 19:32:00,
2013-06-05 11:42:00,49.0,33.0,-100.00,SE,140,3.0,7.0,53,0.00,,,0.00,436.000000,,2013-06-05 19:42:00,
2013-06-05 11:52:00,49.0,33.0,-100.00,SE,140,3.0,7.0,53,0.00,,,0.00,436.000000,,2013-06-05 19:52:00,
2013-06-05 12:22:00,52.0,35.0,-100.00,NNW,338,4.0,7.0,53,0.00,,,0.00,323.000000,,2013-06-05 20:22:00,
2013-06-05 12:32:00,52.0,35.0,-100.00,NNW,338,4.0,7.0,53,0.00,,,0.00,323.000000,,2013-06-05 20:32:00,
2013-06-05 12:42:00,52.0,35.0,-100.00,NNW,338,4.0,7.0,53,0.00,,,0.00,323.000000,,2013-06-05 20:42:00,
2013-06-05 12:52:00,52.0,35.0,-100.00,NNW,338,4.0,7.0,53,0.00,,,0.00,323.000000,,2013-06-05 20:52:00,
2013-06-05 13:22:00,54.0,35.0,-100.00,North,349,4.0,10.0,48,0.00,,,0.00,486.000000,,2013-06-05 21:22:00,
2013-06-05 13:33:00,54.0,35.0,-100.00,North,349,4.0,10.0,48,0.00,,,0.00,486.000000,,2013-06-05 21:33:00,
2013-06-05 13:43:00,54.0,35.0,-100.00,North,349,4.0,10.0,48,0.00,,,0.00,486.000000,,2013-06-05 21:43:00,
2013-06-05 13:53:00,54.0,35.0,-100.00,North,349,4.0,10.0,48,0.00,,,0.00,486.000000,,2013-06-05 21:53:00,
2013-06-05 14:22:00,58.0,37.0,-100.00,NW,322,5.0,11.0,45,0.00,,,0.00,612.000000,,2013-06-05 22:22:00,
2013-06-05 14:32:00,58.0,37.0,-100.00,NW,322,5.0,11.0,45,0.00,,,0.00,612.000000,,2013-06-05 22:32:00,
2013-06-05 14:42:00,58.0,37.0,-100.00,NW,322,5.0,11.0,45,0.00,,,0.00,612.000000,,2013-06-05 22:42:00,
2013-06-05 14:52:00,58.0,37.0,-100.00,NW,322,5.0,11.0,45,0.00,,,0.00,612.000000,,2013-06-05 22:52:00,
2013-06-05 15:22:00,55.0,36.0,-100.00,NNW,345,5.0,10.0,49,0.00,,,0.00,448.000000,,2013-06-05 23:22:00,
2013-06-05 15:32:00,55.0,36.0,-100.00,NNW,345,5.0,10.0,49,0.00,,,0.00,448.000000,,2013-06-05 23:32:00,
2013-06-05 15:42:00,55.0,36.0,-100.00,NNW,345,5.0,10.0,49,0.00,,,0.00,448.000000,,2013-06-05 23:42:00,
2013-06-05 15:53:00,55.0,36.0,-100.00,NNW,345,5.0,10.0,49,0.00,,,0.00,448.000000,,2013-06-05 23:53:00,
2013-06-05 16:22:00,53.0,35.0,-100.00,WNW,287,3.0,9.0,51,0.00,,,0.00,284.000000,,2013-06-06 00:22:00,
2013-06-05 16:32:00,53.0,35.0,-100.00,WNW,287,3.0,9.0,51,0.00,,,0.00,284.000000,,2013-06-06 00:32:00,
2013-06-05 16:42:00,53.0,35.0,-100.00,WNW,287,3.0,9.0,51,0.00,,,0.00,284.000000,,2013-06-06 00:42:00,
2013-06-05 16:52:00,53.0,35.0,-100.00,WNW,287,3.0,9.0,51,0.00,,,0.00,284.000000,,2013-06-06 00:52:00,
2013-06-05 17:22:00,57.0,31.0,-100.00,SSE,161,10.0,18.0,37,0.00,,,0.00,640.000000,,2013-06-06 01:22:00,
2013-06-05 17:32:00,57.0,31.0,-100.00,SSE,161,10.0,18.0,37,0.00,,,0.00,640.000000,,2013-06-06 01:32:00,
2013-06-05 17:42:00,57.0,31.0,-100.00,SSE,161,10.0,18.0,37,0.00,,,0.00,640.000000,,2013-06-06 01:42:00,
2013-06-05 17:52:00,57.0,31.0,-100.00,SSE,161,10.0,18.0,37,0.00,,,0.00,640.000000,,2013-06-06 01:52:00,
2013-06-05 18:22:00,57.0,30.0,-100.00,SSE,152,8.0,17.0,36,0.00,,,0.00,674.000000,,2013-06-06 02:22:00,
2013-06-05 18:32:00,57.0,30.0,-100.00,SSE,152,8.0,17.0,36,0.00,,,0.00,674.000000,,2013-06-06 02:32:00,
2013-06-05 18:42:00,57.0,30.0,-100.00,SSE,152,8.0,17.0,36,0.00,,,0.00,674.000000,,2013-06-06 02:42:00,
2013-06-05 18:52:00,57.0,30.0,-100.00,SSE,152,8.0,17.0,36,0.00,,,0.00,674.000000,,2013-06-06 02:52:00,
2013-06-05 19:22:00,55.0,30.0,-100.00,SSE,158,9.0,19.0,38,0.00,,,0.00,480.000000,,2013-06-06 03:22:00,
2013-06-05 19:33:00,55.0,30.0,-100.00,SSE,158,9.0,19.0,38,0.00,,,0.00,480.000000,,2013-06-06 03:33:00,
2013-06-05 19:43:00,55.0,30.0,-100.00,SSE,158,9.0,19.0,38,0.00,,,0.00,480.000000,,2013-06-06 03:43:00,
2013-06-05 19:52:00,55.0,30.0,-100.00,SSE,158,9.0,19.0,38,0.00,,,0.00,480.000000,,2013-06-06 03:52:00,
2013-06-05 20:23:00,52.0,30.0,-100.00,SSE,162,12.0,23.0,42,0.00,,,0.00,404.000000,,2013-06-06 04:23:00,
2013-06-05 20:33:00,52.0,30.0,-100.00,SSE,162,12.0,23.0,42,0.00,,,0.00,404.000000,,2013-06-06 04:33:00,
2013-06-05 20:42:00,52.0,30.0,-100.00,SSE,162,12.0,23.0,42,0.00,,,0.00,404.000000,,2013-06-06 04:42:00,
2013-06-05 20:52:00,52.0,30.0,-100.00,SSE,162,12.0,23.0,42,0.00,,,0.00,404.000000,,2013-06-06 04:52:00,
2013-06-05 21:22:00,51.0,29.0,-100.00,ESE,104,9.0,17.0,42,0.00,,,0.00,266.000000,,2013-06-06 05:22:00,
2013-06-05 21:32:00,51.0,29.0,-100.00,ESE,104,9.0,17.0,42,0.00,,,0.00,266.000000,,2013-06-06 05:32:00,
2013-06-05 21:42:00,51.0,29.0,-100.00,ESE,104,9.0,17.0,42,0.00,,,0.00,266.000000,,2013-06-06 05:42:00,
2013-06-05 21:52:00,51.0,29.0,-100.00,ESE,104,9.0,17.0,42,0.00,,,0.00,266.000000,,2013-06-06 05:52:00,
2013-06-05 22:22:00,49.0,31.0,-100.00,SE,137,10.0,21.0,49,0.00,,,0.00,141.000000,,2013-06-06 06:22:00,
2013-06-05 22:32:00,49.0,31.0,-100.00,SE,137,10.0,21.0,49,0.00,,,0.00,141.000000,,2013-06-06 06:32:00,
2013-06-05 22:42:00,49.0,31.0,-100.00,SE,137,10.0,21.0,49,0.00,,,0.00,141.000000,,2013-06-06 06:42:00,
2013-06-05 22:52:00,49.0,31.0,-100.00,SE,137,10.0,21.0,49,0.00,,,0.00,141.000000,,2013-06-06 06:52:00,
2013-06-05 23:22:00,47.0,31.0,-100.00,SE,128,10.0,20.0,53,0.00,,,0.00,33.000000,,2013-06-06 07:22:00,
2013-06-05 23:32:00,47.0,31.0,-100.00,SE,128,10.0,20.0,53,0.00,,,0.00,33.000000,,2013-06-06 07:32:00,
2013-06-05 23:42:00,47.0,31.0,-100.00,SE,128,10.0,20.0,53,0.00,,,0.00,33.000000,,2013-06-06 07:42:00,
2013-06-05 23:52:00,47.0,31.0,-100.00,SE,128,10.0,20.0,53,0.00,,,0.00,33.000000,,2013-06-06 07:52:00,